sensor_id;sensor_type;location;lat;lon;timestamp;P1;durP1;ratioP1;P2;durP2;ratioP2
37655;SDS011;23498;50.958;3.124;2023-05-18T00:00:44;12.18;;;4.55;;
37655;SDS011;23498;50.958;3.124;2023-05-18T00:03:10;14.15;;;4.30;;
37655;SDS011;23498;50.958;3.124;2023-05-18T00:05:36;13.57;;;3.95;;
37655;SDS011;23498;50.958;3.124;2023-05-18T00:08:02;10.75;;;3.80;;
37655;SDS011;23498;50.958;3.124;2023-05-18T00:10:28;9.63;;;3.88;;
37655;SDS011;23498;50.958;3.124;2023-05-18T00:12:55;14.20;;;3.83;;
37655;SDS011;23498;50.958;3.124;2023-05-18T00:15:21;12.57;;;4.55;;
37655;SDS011;23498;50.958;3.124;2023-05-18T00:17:47;12.02;;;3.97;;
37655;SDS011;23498;50.958;3.124;2023-05-18T00:20:14;10.93;;;3.83;;
37655;SDS011;23498;50.958;3.124;2023-05-18T00:22:42;14.00;;;4.30;;
37655;SDS011;23498;50.958;3.124;2023-05-18T00:25:08;15.65;;;4.00;;
37655;SDS011;23498;50.958;3.124;2023-05-18T00:27:34;12.07;;;4.00;;
37655;SDS011;23498;50.958;3.124;2023-05-18T00:30:00;13.85;;;4.07;;
37655;SDS011;23498;50.958;3.124;2023-05-18T00:32:26;11.52;;;4.43;;
37655;SDS011;23498;50.958;3.124;2023-05-18T00:34:52;11.93;;;4.35;;
37655;SDS011;23498;50.958;3.124;2023-05-18T00:37:18;15.40;;;4.13;;
37655;SDS011;23498;50.958;3.124;2023-05-18T00:39:44;11.80;;;4.10;;
37655;SDS011;23498;50.958;3.124;2023-05-18T00:42:10;8.95;;;3.85;;
37655;SDS011;23498;50.958;3.124;2023-05-18T00:44:36;14.15;;;5.07;;
37655;SDS011;23498;50.958;3.124;2023-05-18T00:47:02;13.77;;;4.43;;
37655;SDS011;23498;50.958;3.124;2023-05-18T00:49:29;14.18;;;4.30;;
37655;SDS011;23498;50.958;3.124;2023-05-18T00:51:55;12.15;;;4.53;;
37655;SDS011;23498;50.958;3.124;2023-05-18T00:54:21;14.35;;;4.63;;
37655;SDS011;23498;50.958;3.124;2023-05-18T00:56:47;11.60;;;4.78;;
37655;SDS011;23498;50.958;3.124;2023-05-18T00:59:14;14.48;;;5.20;;
37655;SDS011;23498;50.958;3.124;2023-05-18T01:01:40;15.02;;;4.95;;
37655;SDS011;23498;50.958;3.124;2023-05-18T01:04:11;16.98;;;4.95;;
37655;SDS011;23498;50.958;3.124;2023-05-18T01:06:40;15.00;;;4.85;;
37655;SDS011;23498;50.958;3.124;2023-05-18T01:09:07;11.70;;;4.78;;
37655;SDS011;23498;50.958;3.124;2023-05-18T01:11:48;12.95;;;4.78;;
37655;SDS011;23498;50.958;3.124;2023-05-18T01:14:19;18.13;;;4.20;;
37655;SDS011;23498;50.958;3.124;2023-05-18T01:16:53;11.95;;;4.40;;
37655;SDS011;23498;50.958;3.124;2023-05-18T01:21:56;12.80;;;5.20;;
37655;SDS011;23498;50.958;3.124;2023-05-18T01:26:50;12.35;;;4.82;;
37655;SDS011;23498;50.958;3.124;2023-05-18T01:29:21;17.05;;;4.97;;
37655;SDS011;23498;50.958;3.124;2023-05-18T01:31:47;13.18;;;5.38;;
37655;SDS011;23498;50.958;3.124;2023-05-18T01:34:13;15.30;;;5.53;;
37655;SDS011;23498;50.958;3.124;2023-05-18T01:36:40;15.23;;;5.63;;
37655;SDS011;23498;50.958;3.124;2023-05-18T01:39:06;14.20;;;5.30;;
37655;SDS011;23498;50.958;3.124;2023-05-18T01:41:34;15.15;;;5.05;;
37655;SDS011;23498;50.958;3.124;2023-05-18T01:52:05;11.65;;;5.25;;
37655;SDS011;23498;50.958;3.124;2023-05-18T01:54:32;14.82;;;6.57;;
37655;SDS011;23498;50.958;3.124;2023-05-18T01:56:58;13.50;;;5.55;;
37655;SDS011;23498;50.958;3.124;2023-05-18T01:59:26;14.48;;;5.57;;
37655;SDS011;23498;50.958;3.124;2023-05-18T02:01:52;15.55;;;5.88;;
37655;SDS011;23498;50.958;3.124;2023-05-18T02:04:22;13.60;;;5.63;;
37655;SDS011;23498;50.958;3.124;2023-05-18T02:06:48;14.10;;;5.93;;
37655;SDS011;23498;50.958;3.124;2023-05-18T02:09:14;15.95;;;5.68;;
37655;SDS011;23498;50.958;3.124;2023-05-18T02:11:40;12.32;;;5.72;;
37655;SDS011;23498;50.958;3.124;2023-05-18T02:14:06;16.15;;;5.72;;
37655;SDS011;23498;50.958;3.124;2023-05-18T02:16:32;15.07;;;5.90;;
37655;SDS011;23498;50.958;3.124;2023-05-18T02:18:58;14.80;;;6.25;;
37655;SDS011;23498;50.958;3.124;2023-05-18T02:21:24;15.20;;;6.53;;
37655;SDS011;23498;50.958;3.124;2023-05-18T02:23:50;12.13;;;6.30;;
37655;SDS011;23498;50.958;3.124;2023-05-18T02:26:16;16.95;;;6.28;;
37655;SDS011;23498;50.958;3.124;2023-05-18T02:28:42;14.38;;;6.65;;
37655;SDS011;23498;50.958;3.124;2023-05-18T02:31:09;17.63;;;6.30;;
37655;SDS011;23498;50.958;3.124;2023-05-18T02:33:38;12.95;;;5.82;;
37655;SDS011;23498;50.958;3.124;2023-05-18T02:36:11;15.38;;;5.80;;
37655;SDS011;23498;50.958;3.124;2023-05-18T02:38:38;18.83;;;6.20;;
37655;SDS011;23498;50.958;3.124;2023-05-18T02:41:04;16.67;;;6.63;;
37655;SDS011;23498;50.958;3.124;2023-05-18T02:43:31;14.95;;;6.65;;
37655;SDS011;23498;50.958;3.124;2023-05-18T02:45:57;18.30;;;6.13;;
37655;SDS011;23498;50.958;3.124;2023-05-18T02:48:23;16.33;;;5.80;;
37655;SDS011;23498;50.958;3.124;2023-05-18T02:50:49;14.68;;;6.32;;
37655;SDS011;23498;50.958;3.124;2023-05-18T02:53:15;11.85;;;5.82;;
37655;SDS011;23498;50.958;3.124;2023-05-18T02:55:41;15.18;;;6.60;;
37655;SDS011;23498;50.958;3.124;2023-05-18T02:58:08;14.00;;;6.63;;
37655;SDS011;23498;50.958;3.124;2023-05-18T03:00:34;19.50;;;6.82;;
37655;SDS011;23498;50.958;3.124;2023-05-18T03:03:00;12.30;;;5.80;;
37655;SDS011;23498;50.958;3.124;2023-05-18T03:05:26;13.55;;;6.15;;
37655;SDS011;23498;50.958;3.124;2023-05-18T03:07:52;14.32;;;5.78;;
37655;SDS011;23498;50.958;3.124;2023-05-18T03:10:19;16.75;;;6.30;;
37655;SDS011;23498;50.958;3.124;2023-05-18T03:12:45;15.48;;;6.00;;
37655;SDS011;23498;50.958;3.124;2023-05-18T03:15:11;14.63;;;5.93;;
37655;SDS011;23498;50.958;3.124;2023-05-18T03:17:40;13.32;;;5.78;;
37655;SDS011;23498;50.958;3.124;2023-05-18T03:20:06;18.08;;;6.15;;
37655;SDS011;23498;50.958;3.124;2023-05-18T03:22:34;13.77;;;6.25;;
37655;SDS011;23498;50.958;3.124;2023-05-18T03:25:00;15.23;;;6.72;;
37655;SDS011;23498;50.958;3.124;2023-05-18T03:27:26;13.20;;;5.72;;
37655;SDS011;23498;50.958;3.124;2023-05-18T03:29:52;13.70;;;5.97;;
37655;SDS011;23498;50.958;3.124;2023-05-18T03:32:20;16.73;;;6.65;;
37655;SDS011;23498;50.958;3.124;2023-05-18T03:34:46;13.75;;;6.75;;
37655;SDS011;23498;50.958;3.124;2023-05-18T03:37:12;15.38;;;6.57;;
37655;SDS011;23498;50.958;3.124;2023-05-18T03:39:39;14.18;;;6.15;;
37655;SDS011;23498;50.958;3.124;2023-05-18T03:42:05;17.05;;;6.80;;
37655;SDS011;23498;50.958;3.124;2023-05-18T03:44:31;14.15;;;5.72;;
37655;SDS011;23498;50.958;3.124;2023-05-18T03:46:57;15.20;;;6.18;;
37655;SDS011;23498;50.958;3.124;2023-05-18T03:49:23;13.43;;;6.50;;
37655;SDS011;23498;50.958;3.124;2023-05-18T03:51:49;15.30;;;6.70;;
37655;SDS011;23498;50.958;3.124;2023-05-18T03:54:18;18.67;;;6.93;;
37655;SDS011;23498;50.958;3.124;2023-05-18T03:56:45;15.27;;;6.50;;
37655;SDS011;23498;50.958;3.124;2023-05-18T03:59:11;15.00;;;5.95;;
37655;SDS011;23498;50.958;3.124;2023-05-18T04:01:37;13.65;;;6.10;;
37655;SDS011;23498;50.958;3.124;2023-05-18T04:04:06;17.00;;;6.50;;
37655;SDS011;23498;50.958;3.124;2023-05-18T04:06:32;13.20;;;6.28;;
37655;SDS011;23498;50.958;3.124;2023-05-18T04:08:59;16.02;;;5.93;;
37655;SDS011;23498;50.958;3.124;2023-05-18T04:11:31;12.98;;;5.63;;
37655;SDS011;23498;50.958;3.124;2023-05-18T04:13:57;11.38;;;5.50;;
37655;SDS011;23498;50.958;3.124;2023-05-18T04:16:25;15.23;;;5.55;;
37655;SDS011;23498;50.958;3.124;2023-05-18T04:18:51;13.98;;;6.60;;
37655;SDS011;23498;50.958;3.124;2023-05-18T04:21:17;10.77;;;5.60;;
37655;SDS011;23498;50.958;3.124;2023-05-18T04:23:44;15.10;;;5.78;;
37655;SDS011;23498;50.958;3.124;2023-05-18T04:26:11;11.27;;;5.75;;
37655;SDS011;23498;50.958;3.124;2023-05-18T04:28:37;15.57;;;5.95;;
37655;SDS011;23498;50.958;3.124;2023-05-18T04:31:03;12.35;;;5.47;;
37655;SDS011;23498;50.958;3.124;2023-05-18T04:33:30;13.73;;;5.63;;
37655;SDS011;23498;50.958;3.124;2023-05-18T04:35:56;11.95;;;5.72;;
37655;SDS011;23498;50.958;3.124;2023-05-18T04:38:28;13.68;;;5.78;;
37655;SDS011;23498;50.958;3.124;2023-05-18T04:40:56;11.35;;;5.57;;
37655;SDS011;23498;50.958;3.124;2023-05-18T04:43:24;12.30;;;5.47;;
37655;SDS011;23498;50.958;3.124;2023-05-18T04:45:52;12.23;;;5.97;;
37655;SDS011;23498;50.958;3.124;2023-05-18T04:48:18;10.30;;;5.30;;
37655;SDS011;23498;50.958;3.124;2023-05-18T04:50:44;13.40;;;5.60;;
37655;SDS011;23498;50.958;3.124;2023-05-18T04:53:11;10.57;;;5.03;;
37655;SDS011;23498;50.958;3.124;2023-05-18T04:55:37;14.48;;;5.47;;
37655;SDS011;23498;50.958;3.124;2023-05-18T04:58:03;13.55;;;5.93;;
37655;SDS011;23498;50.958;3.124;2023-05-18T05:00:29;11.68;;;5.43;;
37655;SDS011;23498;50.958;3.124;2023-05-18T05:02:56;14.25;;;5.57;;
37655;SDS011;23498;50.958;3.124;2023-05-18T05:05:23;14.30;;;5.68;;
37655;SDS011;23498;50.958;3.124;2023-05-18T05:07:50;9.35;;;4.72;;
37655;SDS011;23498;50.958;3.124;2023-05-18T05:10:17;11.20;;;5.00;;
37655;SDS011;23498;50.958;3.124;2023-05-18T05:12:43;15.48;;;5.40;;
37655;SDS011;23498;50.958;3.124;2023-05-18T05:15:09;12.10;;;5.00;;
37655;SDS011;23498;50.958;3.124;2023-05-18T05:17:36;12.18;;;4.95;;
37655;SDS011;23498;50.958;3.124;2023-05-18T05:20:02;13.60;;;5.40;;
37655;SDS011;23498;50.958;3.124;2023-05-18T05:22:28;12.02;;;4.55;;
37655;SDS011;23498;50.958;3.124;2023-05-18T05:24:54;14.50;;;5.00;;
37655;SDS011;23498;50.958;3.124;2023-05-18T05:27:20;15.68;;;5.07;;
37655;SDS011;23498;50.958;3.124;2023-05-18T05:29:47;9.98;;;4.55;;
37655;SDS011;23498;50.958;3.124;2023-05-18T05:32:14;10.63;;;4.65;;
37655;SDS011;23498;50.958;3.124;2023-05-18T05:34:40;13.82;;;4.68;;
37655;SDS011;23498;50.958;3.124;2023-05-18T05:37:12;13.70;;;4.80;;
37655;SDS011;23498;50.958;3.124;2023-05-18T05:39:38;11.48;;;4.68;;
37655;SDS011;23498;50.958;3.124;2023-05-18T05:42:04;13.50;;;5.32;;
37655;SDS011;23498;50.958;3.124;2023-05-18T05:44:31;12.20;;;4.65;;
37655;SDS011;23498;50.958;3.124;2023-05-18T05:46:57;15.80;;;5.07;;
37655;SDS011;23498;50.958;3.124;2023-05-18T05:49:23;11.45;;;5.20;;
37655;SDS011;23498;50.958;3.124;2023-05-18T05:51:49;15.60;;;4.75;;
37655;SDS011;23498;50.958;3.124;2023-05-18T05:54:15;15.07;;;5.68;;
37655;SDS011;23498;50.958;3.124;2023-05-18T05:56:41;11.68;;;5.05;;
37655;SDS011;23498;50.958;3.124;2023-05-18T05:59:07;11.70;;;5.00;;
37655;SDS011;23498;50.958;3.124;2023-05-18T06:01:33;12.43;;;5.20;;
37655;SDS011;23498;50.958;3.124;2023-05-18T06:04:00;9.38;;;5.05;;
37655;SDS011;23498;50.958;3.124;2023-05-18T06:06:26;12.68;;;5.90;;
37655;SDS011;23498;50.958;3.124;2023-05-18T06:08:53;17.08;;;5.53;;
37655;SDS011;23498;50.958;3.124;2023-05-18T06:11:19;10.07;;;6.07;;
37655;SDS011;23498;50.958;3.124;2023-05-18T06:13:46;11.43;;;6.38;;
37655;SDS011;23498;50.958;3.124;2023-05-18T06:16:12;15.32;;;6.50;;
37655;SDS011;23498;50.958;3.124;2023-05-18T06:18:38;14.93;;;6.43;;
37655;SDS011;23498;50.958;3.124;2023-05-18T06:21:04;14.48;;;6.78;;
37655;SDS011;23498;50.958;3.124;2023-05-18T06:23:30;15.30;;;7.05;;
37655;SDS011;23498;50.958;3.124;2023-05-18T06:25:56;16.33;;;7.13;;
37655;SDS011;23498;50.958;3.124;2023-05-18T06:28:22;15.65;;;6.93;;
37655;SDS011;23498;50.958;3.124;2023-05-18T06:30:48;12.73;;;6.82;;
37655;SDS011;23498;50.958;3.124;2023-05-18T06:33:15;14.68;;;6.57;;
37655;SDS011;23498;50.958;3.124;2023-05-18T06:35:41;14.82;;;6.63;;
37655;SDS011;23498;50.958;3.124;2023-05-18T06:38:07;13.77;;;7.13;;
37655;SDS011;23498;50.958;3.124;2023-05-18T06:40:33;13.20;;;7.50;;
37655;SDS011;23498;50.958;3.124;2023-05-18T06:43:00;13.55;;;6.82;;
37655;SDS011;23498;50.958;3.124;2023-05-18T06:45:25;13.48;;;7.20;;
37655;SDS011;23498;50.958;3.124;2023-05-18T06:47:51;12.68;;;7.80;;
37655;SDS011;23498;50.958;3.124;2023-05-18T06:50:17;15.38;;;7.05;;
37655;SDS011;23498;50.958;3.124;2023-05-18T06:52:44;15.70;;;7.97;;
37655;SDS011;23498;50.958;3.124;2023-05-18T06:55:10;14.35;;;7.18;;
37655;SDS011;23498;50.958;3.124;2023-05-18T06:57:36;14.27;;;7.05;;
37655;SDS011;23498;50.958;3.124;2023-05-18T07:00:02;14.52;;;8.23;;
37655;SDS011;23498;50.958;3.124;2023-05-18T07:02:31;21.90;;;8.48;;
37655;SDS011;23498;50.958;3.124;2023-05-18T07:04:57;16.30;;;7.65;;
37655;SDS011;23498;50.958;3.124;2023-05-18T07:07:23;17.73;;;8.82;;
37655;SDS011;23498;50.958;3.124;2023-05-18T07:09:49;15.48;;;7.40;;
37655;SDS011;23498;50.958;3.124;2023-05-18T07:12:15;16.23;;;8.73;;
37655;SDS011;23498;50.958;3.124;2023-05-18T07:14:41;16.23;;;7.90;;
37655;SDS011;23498;50.958;3.124;2023-05-18T07:17:07;19.10;;;8.45;;
37655;SDS011;23498;50.958;3.124;2023-05-18T07:19:33;15.82;;;8.32;;
37655;SDS011;23498;50.958;3.124;2023-05-18T07:21:59;14.85;;;7.82;;
37655;SDS011;23498;50.958;3.124;2023-05-18T07:24:25;14.50;;;7.65;;
37655;SDS011;23498;50.958;3.124;2023-05-18T07:26:51;13.70;;;7.38;;
37655;SDS011;23498;50.958;3.124;2023-05-18T07:29:17;14.88;;;8.05;;
37655;SDS011;23498;50.958;3.124;2023-05-18T07:31:43;18.75;;;7.97;;
37655;SDS011;23498;50.958;3.124;2023-05-18T07:34:10;16.15;;;7.30;;
37655;SDS011;23498;50.958;3.124;2023-05-18T07:36:36;17.50;;;8.10;;
37655;SDS011;23498;50.958;3.124;2023-05-18T07:39:02;19.30;;;8.13;;
37655;SDS011;23498;50.958;3.124;2023-05-18T07:41:28;13.40;;;7.25;;
37655;SDS011;23498;50.958;3.124;2023-05-18T07:43:55;16.45;;;7.57;;
37655;SDS011;23498;50.958;3.124;2023-05-18T07:46:21;18.98;;;6.93;;
37655;SDS011;23498;50.958;3.124;2023-05-18T07:48:50;15.32;;;7.18;;
37655;SDS011;23498;50.958;3.124;2023-05-18T07:51:16;19.33;;;6.97;;
37655;SDS011;23498;50.958;3.124;2023-05-18T07:53:42;14.23;;;7.18;;
37655;SDS011;23498;50.958;3.124;2023-05-18T07:56:09;14.35;;;6.90;;
37655;SDS011;23498;50.958;3.124;2023-05-18T07:58:36;11.07;;;6.47;;
37655;SDS011;23498;50.958;3.124;2023-05-18T08:01:02;11.30;;;6.13;;
37655;SDS011;23498;50.958;3.124;2023-05-18T08:03:28;16.63;;;6.68;;
37655;SDS011;23498;50.958;3.124;2023-05-18T08:05:54;14.25;;;6.20;;
37655;SDS011;23498;50.958;3.124;2023-05-18T08:08:20;15.10;;;6.25;;
37655;SDS011;23498;50.958;3.124;2023-05-18T08:10:46;11.43;;;5.72;;
37655;SDS011;23498;50.958;3.124;2023-05-18T08:13:12;9.30;;;5.85;;
37655;SDS011;23498;50.958;3.124;2023-05-18T08:15:38;13.05;;;6.63;;
37655;SDS011;23498;50.958;3.124;2023-05-18T08:18:05;17.58;;;6.38;;
37655;SDS011;23498;50.958;3.124;2023-05-18T08:20:31;18.38;;;6.25;;
37655;SDS011;23498;50.958;3.124;2023-05-18T08:22:57;16.55;;;6.43;;
37655;SDS011;23498;50.958;3.124;2023-05-18T08:25:23;12.98;;;6.28;;
37655;SDS011;23498;50.958;3.124;2023-05-18T08:27:49;17.20;;;7.05;;
37655;SDS011;23498;50.958;3.124;2023-05-18T08:30:15;12.30;;;5.75;;
37655;SDS011;23498;50.958;3.124;2023-05-18T08:32:45;13.68;;;5.85;;
37655;SDS011;23498;50.958;3.124;2023-05-18T08:35:11;14.07;;;6.57;;
37655;SDS011;23498;50.958;3.124;2023-05-18T08:37:37;15.75;;;6.07;;
37655;SDS011;23498;50.958;3.124;2023-05-18T08:40:04;11.82;;;5.80;;
37655;SDS011;23498;50.958;3.124;2023-05-18T08:46:00;14.35;;;6.28;;
37655;SDS011;23498;50.958;3.124;2023-05-18T08:47:59;12.32;;;6.25;;
37655;SDS011;23498;50.958;3.124;2023-05-18T08:50:25;13.18;;;5.25;;
37655;SDS011;23498;50.958;3.124;2023-05-18T08:52:57;13.93;;;5.75;;
37655;SDS011;23498;50.958;3.124;2023-05-18T08:55:25;11.65;;;5.78;;
37655;SDS011;23498;50.958;3.124;2023-05-18T08:57:53;10.23;;;5.45;;
37655;SDS011;23498;50.958;3.124;2023-05-18T09:00:20;15.15;;;5.80;;
37655;SDS011;23498;50.958;3.124;2023-05-18T09:02:48;14.63;;;5.88;;
37655;SDS011;23498;50.958;3.124;2023-05-18T09:05:14;14.80;;;5.68;;
37655;SDS011;23498;50.958;3.124;2023-05-18T09:07:41;14.23;;;6.70;;
37655;SDS011;23498;50.958;3.124;2023-05-18T09:10:11;16.73;;;6.03;;
37655;SDS011;23498;50.958;3.124;2023-05-18T09:12:38;18.67;;;5.93;;
37655;SDS011;23498;50.958;3.124;2023-05-18T09:15:07;9.93;;;5.63;;
37655;SDS011;23498;50.958;3.124;2023-05-18T09:17:34;14.77;;;6.00;;
37655;SDS011;23498;50.958;3.124;2023-05-18T09:20:00;11.55;;;5.22;;
37655;SDS011;23498;50.958;3.124;2023-05-18T09:22:29;14.32;;;6.20;;
37655;SDS011;23498;50.958;3.124;2023-05-18T09:24:55;10.85;;;5.78;;
37655;SDS011;23498;50.958;3.124;2023-05-18T09:27:22;12.20;;;5.75;;
37655;SDS011;23498;50.958;3.124;2023-05-18T09:29:52;11.55;;;6.10;;
37655;SDS011;23498;50.958;3.124;2023-05-18T09:32:18;11.52;;;5.72;;
37655;SDS011;23498;50.958;3.124;2023-05-18T09:34:44;11.98;;;5.88;;
37655;SDS011;23498;50.958;3.124;2023-05-18T09:37:14;10.65;;;5.30;;
37655;SDS011;23498;50.958;3.124;2023-05-18T09:39:41;12.05;;;4.97;;
37655;SDS011;23498;50.958;3.124;2023-05-18T09:42:07;8.85;;;4.47;;
37655;SDS011;23498;50.958;3.124;2023-05-18T09:44:33;9.77;;;4.80;;
37655;SDS011;23498;50.958;3.124;2023-05-18T09:47:00;12.55;;;5.50;;
37655;SDS011;23498;50.958;3.124;2023-05-18T09:49:28;10.73;;;4.55;;
37655;SDS011;23498;50.958;3.124;2023-05-18T09:51:55;13.45;;;4.63;;
37655;SDS011;23498;50.958;3.124;2023-05-18T09:54:24;9.00;;;3.90;;
37655;SDS011;23498;50.958;3.124;2023-05-18T09:56:50;12.52;;;4.20;;
37655;SDS011;23498;50.958;3.124;2023-05-18T09:59:16;11.95;;;4.13;;
37655;SDS011;23498;50.958;3.124;2023-05-18T10:02:16;13.73;;;4.28;;
37655;SDS011;23498;50.958;3.124;2023-05-18T10:04:37;11.25;;;4.50;;
37655;SDS011;23498;50.958;3.124;2023-05-18T10:07:08;11.48;;;4.45;;
37655;SDS011;23498;50.958;3.124;2023-05-18T10:09:35;9.13;;;4.60;;
37655;SDS011;23498;50.958;3.124;2023-05-18T10:12:01;9.82;;;3.97;;
37655;SDS011;23498;50.958;3.124;2023-05-18T10:14:31;12.60;;;4.80;;
37655;SDS011;23498;50.958;3.124;2023-05-18T10:17:02;10.30;;;4.68;;
37655;SDS011;23498;50.958;3.124;2023-05-18T10:19:29;11.27;;;4.80;;
37655;SDS011;23498;50.958;3.124;2023-05-18T10:21:55;10.75;;;4.57;;
37655;SDS011;23498;50.958;3.124;2023-05-18T10:24:23;12.13;;;4.50;;
37655;SDS011;23498;50.958;3.124;2023-05-18T10:26:49;9.77;;;4.15;;
37655;SDS011;23498;50.958;3.124;2023-05-18T10:29:16;11.45;;;4.25;;
37655;SDS011;23498;50.958;3.124;2023-05-18T10:31:43;12.85;;;4.88;;
37655;SDS011;23498;50.958;3.124;2023-05-18T10:34:10;10.30;;;4.20;;
37655;SDS011;23498;50.958;3.124;2023-05-18T10:36:36;10.55;;;4.25;;
37655;SDS011;23498;50.958;3.124;2023-05-18T10:39:03;11.85;;;4.80;;
37655;SDS011;23498;50.958;3.124;2023-05-18T10:41:30;10.60;;;4.75;;
37655;SDS011;23498;50.958;3.124;2023-05-18T10:43:57;8.32;;;4.15;;
37655;SDS011;23498;50.958;3.124;2023-05-18T10:46:28;9.88;;;4.28;;
37655;SDS011;23498;50.958;3.124;2023-05-18T10:48:54;8.93;;;3.97;;
37655;SDS011;23498;50.958;3.124;2023-05-18T10:51:20;12.27;;;4.47;;
37655;SDS011;23498;50.958;3.124;2023-05-18T10:53:46;10.65;;;4.05;;
37655;SDS011;23498;50.958;3.124;2023-05-18T10:56:14;9.00;;;3.92;;
37655;SDS011;23498;50.958;3.124;2023-05-18T10:58:40;10.35;;;4.43;;
37655;SDS011;23498;50.958;3.124;2023-05-18T11:01:08;10.07;;;4.15;;
37655;SDS011;23498;50.958;3.124;2023-05-18T11:03:35;12.50;;;4.00;;
37655;SDS011;23498;50.958;3.124;2023-05-18T11:06:04;8.75;;;4.53;;
37655;SDS011;23498;50.958;3.124;2023-05-18T11:08:40;12.90;;;4.47;;
37655;SDS011;23498;50.958;3.124;2023-05-18T11:11:07;10.45;;;4.00;;
37655;SDS011;23498;50.958;3.124;2023-05-18T11:13:34;11.10;;;4.60;;
37655;SDS011;23498;50.958;3.124;2023-05-18T11:16:02;14.52;;;4.65;;
37655;SDS011;23498;50.958;3.124;2023-05-18T11:18:39;8.43;;;4.40;;
37655;SDS011;23498;50.958;3.124;2023-05-18T11:21:18;9.32;;;4.28;;
37655;SDS011;23498;50.958;3.124;2023-05-18T11:26:29;15.30;;;5.25;;
37655;SDS011;23498;50.958;3.124;2023-05-18T11:28:57;10.57;;;4.80;;
37655;SDS011;23498;50.958;3.124;2023-05-18T11:31:27;10.88;;;4.40;;
37655;SDS011;23498;50.958;3.124;2023-05-18T11:34:50;11.60;;;4.80;;
37655;SDS011;23498;50.958;3.124;2023-05-18T11:36:56;8.65;;;4.22;;
37655;SDS011;23498;50.958;3.124;2023-05-18T11:39:22;10.85;;;4.47;;
37655;SDS011;23498;50.958;3.124;2023-05-18T11:42:04;9.35;;;4.40;;
37655;SDS011;23498;50.958;3.124;2023-05-18T11:44:30;9.73;;;4.00;;
37655;SDS011;23498;50.958;3.124;2023-05-18T11:49:24;8.88;;;3.92;;
37655;SDS011;23498;50.958;3.124;2023-05-18T11:51:54;6.22;;;3.60;;
37655;SDS011;23498;50.958;3.124;2023-05-18T11:54:24;8.65;;;4.20;;
37655;SDS011;23498;50.958;3.124;2023-05-18T11:56:53;10.50;;;3.85;;
37655;SDS011;23498;50.958;3.124;2023-05-18T11:59:29;5.93;;;3.28;;
37655;SDS011;23498;50.958;3.124;2023-05-18T12:01:56;7.43;;;3.78;;
37655;SDS011;23498;50.958;3.124;2023-05-18T12:04:23;11.15;;;4.38;;
37655;SDS011;23498;50.958;3.124;2023-05-18T12:06:49;7.93;;;4.13;;
37655;SDS011;23498;50.958;3.124;2023-05-18T12:09:17;8.30;;;4.18;;
37655;SDS011;23498;50.958;3.124;2023-05-18T12:11:43;10.02;;;3.70;;
37655;SDS011;23498;50.958;3.124;2023-05-18T12:14:09;7.63;;;3.70;;
37655;SDS011;23498;50.958;3.124;2023-05-18T12:16:36;6.88;;;3.80;;
37655;SDS011;23498;50.958;3.124;2023-05-18T12:19:03;8.38;;;3.38;;
37655;SDS011;23498;50.958;3.124;2023-05-18T12:21:29;6.18;;;3.22;;
37655;SDS011;23498;50.958;3.124;2023-05-18T12:23:59;6.05;;;3.47;;
37655;SDS011;23498;50.958;3.124;2023-05-18T12:26:28;6.40;;;3.20;;
37655;SDS011;23498;50.958;3.124;2023-05-18T12:28:55;6.75;;;3.17;;
37655;SDS011;23498;50.958;3.124;2023-05-18T12:31:21;6.63;;;3.47;;
37655;SDS011;23498;50.958;3.124;2023-05-18T12:33:48;6.05;;;3.20;;
37655;SDS011;23498;50.958;3.124;2023-05-18T12:36:15;9.50;;;4.15;;
37655;SDS011;23498;50.958;3.124;2023-05-18T12:38:41;7.82;;;3.85;;
37655;SDS011;23498;50.958;3.124;2023-05-18T12:41:07;7.30;;;3.75;;
37655;SDS011;23498;50.958;3.124;2023-05-18T12:43:34;9.57;;;4.35;;
37655;SDS011;23498;50.958;3.124;2023-05-18T12:46:03;7.97;;;4.15;;
37655;SDS011;23498;50.958;3.124;2023-05-18T12:48:36;7.57;;;4.00;;
37655;SDS011;23498;50.958;3.124;2023-05-18T12:51:03;7.32;;;3.90;;
37655;SDS011;23498;50.958;3.124;2023-05-18T12:53:40;8.50;;;4.35;;
37655;SDS011;23498;50.958;3.124;2023-05-18T12:56:06;7.32;;;4.00;;
37655;SDS011;23498;50.958;3.124;2023-05-18T12:58:36;9.32;;;4.30;;
37655;SDS011;23498;50.958;3.124;2023-05-18T13:01:08;11.32;;;4.50;;
37655;SDS011;23498;50.958;3.124;2023-05-18T13:03:34;8.27;;;4.28;;
37655;SDS011;23498;50.958;3.124;2023-05-18T13:06:02;9.02;;;4.20;;
37655;SDS011;23498;50.958;3.124;2023-05-18T13:08:30;8.40;;;4.47;;
37655;SDS011;23498;50.958;3.124;2023-05-18T13:10:59;8.55;;;4.97;;
37655;SDS011;23498;50.958;3.124;2023-05-18T13:13:26;8.63;;;5.03;;
37655;SDS011;23498;50.958;3.124;2023-05-18T13:15:52;7.60;;;4.85;;
37655;SDS011;23498;50.958;3.124;2023-05-18T13:18:18;7.53;;;4.95;;
37655;SDS011;23498;50.958;3.124;2023-05-18T13:20:45;8.32;;;4.85;;
37655;SDS011;23498;50.958;3.124;2023-05-18T13:23:14;9.52;;;4.88;;
37655;SDS011;23498;50.958;3.124;2023-05-18T13:25:40;8.00;;;4.72;;
37655;SDS011;23498;50.958;3.124;2023-05-18T13:28:06;6.95;;;4.43;;
37655;SDS011;23498;50.958;3.124;2023-05-18T13:30:34;8.52;;;4.95;;
37655;SDS011;23498;50.958;3.124;2023-05-18T13:33:00;6.93;;;4.35;;
37655;SDS011;23498;50.958;3.124;2023-05-18T13:35:27;10.45;;;4.50;;
37655;SDS011;23498;50.958;3.124;2023-05-18T13:37:53;6.35;;;4.10;;
37655;SDS011;23498;50.958;3.124;2023-05-18T13:40:19;7.18;;;4.70;;
37655;SDS011;23498;50.958;3.124;2023-05-18T13:42:46;7.70;;;4.07;;
37655;SDS011;23498;50.958;3.124;2023-05-18T13:45:12;10.30;;;4.88;;
37655;SDS011;23498;50.958;3.124;2023-05-18T13:47:39;8.48;;;4.28;;
37655;SDS011;23498;50.958;3.124;2023-05-18T13:50:05;8.60;;;4.30;;
37655;SDS011;23498;50.958;3.124;2023-05-18T13:52:31;7.43;;;3.95;;
37655;SDS011;23498;50.958;3.124;2023-05-18T13:54:57;7.97;;;3.88;;
37655;SDS011;23498;50.958;3.124;2023-05-18T13:57:23;8.15;;;5.20;;
37655;SDS011;23498;50.958;3.124;2023-05-18T13:59:50;8.43;;;5.05;;
37655;SDS011;23498;50.958;3.124;2023-05-18T14:02:17;11.38;;;6.00;;
37655;SDS011;23498;50.958;3.124;2023-05-18T14:04:43;7.80;;;5.82;;
37655;SDS011;23498;50.958;3.124;2023-05-18T14:07:09;7.97;;;6.10;;
37655;SDS011;23498;50.958;3.124;2023-05-18T14:09:36;10.65;;;6.20;;
37655;SDS011;23498;50.958;3.124;2023-05-18T14:12:02;10.25;;;5.60;;
37655;SDS011;23498;50.958;3.124;2023-05-18T14:14:29;9.70;;;5.78;;
37655;SDS011;23498;50.958;3.124;2023-05-18T14:16:55;11.48;;;6.00;;
37655;SDS011;23498;50.958;3.124;2023-05-18T14:19:21;10.23;;;5.70;;
37655;SDS011;23498;50.958;3.124;2023-05-18T14:21:47;9.48;;;5.32;;
37655;SDS011;23498;50.958;3.124;2023-05-18T14:24:13;8.85;;;5.45;;
37655;SDS011;23498;50.958;3.124;2023-05-18T14:26:40;11.30;;;5.82;;
37655;SDS011;23498;50.958;3.124;2023-05-18T14:29:06;10.07;;;6.15;;
37655;SDS011;23498;50.958;3.124;2023-05-18T14:31:32;12.18;;;6.45;;
37655;SDS011;23498;50.958;3.124;2023-05-18T14:33:59;11.13;;;5.80;;
37655;SDS011;23498;50.958;3.124;2023-05-18T14:36:25;10.40;;;5.63;;
37655;SDS011;23498;50.958;3.124;2023-05-18T14:38:51;11.02;;;5.70;;
37655;SDS011;23498;50.958;3.124;2023-05-18T14:41:17;10.82;;;5.88;;
37655;SDS011;23498;50.958;3.124;2023-05-18T14:43:43;10.73;;;6.10;;
37655;SDS011;23498;50.958;3.124;2023-05-18T14:46:10;9.60;;;5.43;;
37655;SDS011;23498;50.958;3.124;2023-05-18T14:48:36;9.18;;;5.47;;
37655;SDS011;23498;50.958;3.124;2023-05-18T14:51:02;9.20;;;5.55;;
37655;SDS011;23498;50.958;3.124;2023-05-18T14:53:28;10.68;;;5.93;;
37655;SDS011;23498;50.958;3.124;2023-05-18T14:55:54;10.70;;;5.80;;
37655;SDS011;23498;50.958;3.124;2023-05-18T14:58:20;10.38;;;5.60;;